createdAt,value
2018-02-11T00:00:53.621Z,1007.15
2018-02-11T00:01:53.604Z,1007.14
2018-02-11T00:02:53.576Z,1007.16
2018-02-11T00:03:53.564Z,1007.15
2018-02-11T00:04:53.544Z,1007.16
2018-02-11T00:05:53.523Z,1007.15
2018-02-11T00:06:53.505Z,1007.17
2018-02-11T00:07:53.475Z,1007.17
2018-02-11T00:08:53.452Z,1007.17
2018-02-11T00:09:53.440Z,1007.16
2018-02-11T00:10:53.411Z,1007.16
2018-02-11T00:11:53.392Z,1007.16
2018-02-11T00:12:53.373Z,1007.15
2018-02-11T00:13:53.352Z,1007.10
2018-02-11T00:14:53.335Z,1007.10
2018-02-11T00:15:53.309Z,1007.08
2018-02-11T00:16:53.301Z,1007.12
2018-02-11T00:17:53.267Z,1007.06
2018-02-11T00:18:53.258Z,1007.07
2018-02-11T00:19:53.229Z,1007.03
2018-02-11T00:20:53.207Z,1007.01
2018-02-11T00:21:53.185Z,1006.99
2018-02-11T00:22:53.165Z,1007.00
2018-02-11T00:23:53.146Z,1006.93
2018-02-11T00:24:53.126Z,1006.96
2018-02-11T00:25:53.105Z,1006.95
2018-02-11T00:26:53.086Z,1006.93
2018-02-11T00:27:53.062Z,1006.92
2018-02-11T00:28:53.047Z,1006.94
2018-02-11T00:29:53.025Z,1006.92
2018-02-11T00:30:53.003Z,1006.92
2018-02-11T00:31:52.980Z,1006.93
2018-02-11T00:32:52.961Z,1006.87
2018-02-11T00:33:52.947Z,1006.87
2018-02-11T00:34:52.921Z,1006.86
2018-02-11T00:35:52.903Z,1006.85
2018-02-11T00:36:52.885Z,1006.84
2018-02-11T00:37:52.867Z,1006.82
2018-02-11T00:38:52.843Z,1006.80
2018-02-11T00:39:52.818Z,1006.82
2018-02-11T00:40:52.800Z,1006.82
2018-02-11T00:41:52.783Z,1006.77
2018-02-11T00:42:52.757Z,1006.75
2018-02-11T00:43:52.739Z,1006.78
2018-02-11T00:44:52.717Z,1006.75
2018-02-11T00:45:52.696Z,1006.76
2018-02-11T00:46:52.674Z,1006.74
2018-02-11T00:47:52.662Z,1006.69
2018-02-11T00:48:52.636Z,1006.68
2018-02-11T00:49:52.613Z,1006.64
2018-02-11T00:50:52.596Z,1006.61
2018-02-11T00:51:52.621Z,1006.63
2018-02-11T00:52:52.555Z,1006.61
2018-02-11T00:53:52.531Z,1006.58
2018-02-11T00:54:52.512Z,1006.58
2018-02-11T00:55:52.489Z,1006.57
2018-02-11T00:56:52.469Z,1006.55
2018-02-11T00:57:52.448Z,1006.53
2018-02-11T00:58:52.430Z,1006.56
2018-02-11T00:59:52.416Z,1006.50
2018-02-11T01:00:52.392Z,1006.48
2018-02-11T01:01:52.367Z,1006.51
2018-02-11T01:02:52.344Z,1006.48
2018-02-11T01:03:52.326Z,1006.46
2018-02-11T01:04:52.310Z,1006.45
2018-02-11T01:05:52.290Z,1006.41
2018-02-11T01:06:52.272Z,1006.43
2018-02-11T01:07:52.245Z,1006.43
2018-02-11T01:08:52.223Z,1006.41
2018-02-11T01:09:52.203Z,1006.36
2018-02-11T01:10:52.182Z,1006.30
2018-02-11T01:11:52.164Z,1006.28
2018-02-11T01:12:52.144Z,1006.28
2018-02-11T01:13:52.121Z,1006.27
2018-02-11T01:14:52.103Z,1006.24
2018-02-11T01:15:52.080Z,1006.24
2018-02-11T01:16:52.064Z,1006.26
2018-02-11T01:17:52.039Z,1006.23
2018-02-11T01:18:52.031Z,1006.21
2018-02-11T01:19:52.004Z,1006.17
2018-02-11T01:20:51.979Z,1006.20
2018-02-11T01:21:51.962Z,1006.18
2018-02-11T01:22:51.935Z,1006.20
2018-02-11T01:23:51.924Z,1006.19
2018-02-11T01:24:51.895Z,1006.23
2018-02-11T01:25:51.876Z,1006.17
2018-02-11T01:26:51.857Z,1006.14
2018-02-11T01:27:51.852Z,1006.17
2018-02-11T01:28:51.812Z,1006.13
2018-02-11T01:29:51.793Z,1006.15
2018-02-11T01:30:51.774Z,1006.07
2018-02-11T01:31:51.754Z,1006.12
2018-02-11T01:32:51.734Z,1006.11
2018-02-11T01:33:51.709Z,1006.10
2018-02-11T01:34:51.691Z,1006.09
2018-02-11T01:35:51.671Z,1006.08
2018-02-11T01:36:51.654Z,1006.04
2018-02-11T01:37:51.631Z,1006.05
2018-02-11T01:38:51.613Z,1006.06
2018-02-11T01:39:51.589Z,1006.01
2018-02-11T01:40:51.566Z,1006.04
2018-02-11T01:41:51.546Z,1006.03
2018-02-11T01:42:51.526Z,1006.03
2018-02-11T01:43:51.502Z,1006.00
2018-02-11T01:44:51.489Z,1006.00
2018-02-11T01:45:51.460Z,1005.95
2018-02-11T01:46:51.454Z,1005.97
2018-02-11T01:47:51.424Z,1005.94
2018-02-11T01:48:51.400Z,1005.95
2018-02-11T01:49:51.382Z,1005.93
2018-02-11T01:50:51.366Z,1005.91
2018-02-11T01:51:51.349Z,1005.82
2018-02-11T01:52:51.322Z,1005.81
2018-02-11T01:53:51.300Z,1005.83
2018-02-11T01:54:51.275Z,1005.77
2018-02-11T01:55:51.259Z,1005.75
2018-02-11T01:56:51.236Z,1005.74
2018-02-11T01:57:51.221Z,1005.72
2018-02-11T01:58:51.194Z,1005.70
2018-02-11T01:59:51.175Z,1005.66
2018-02-11T02:00:51.153Z,1005.63
2018-02-11T02:01:51.132Z,1005.66
2018-02-11T02:02:51.117Z,1005.62
2018-02-11T02:03:51.096Z,1005.68
2018-02-11T02:04:51.078Z,1005.67
2018-02-11T02:05:51.050Z,1005.60
2018-02-11T02:06:51.044Z,1005.63
2018-02-11T02:07:51.011Z,1005.58
2018-02-11T02:08:50.996Z,1005.59
2018-02-11T02:09:50.967Z,1005.52
2018-02-11T02:10:50.947Z,1005.57
2018-02-11T02:11:50.925Z,1005.55
2018-02-11T02:12:50.906Z,1005.56
2018-02-11T02:13:50.887Z,1005.51
2018-02-11T02:14:50.864Z,1005.45
2018-02-11T02:15:50.845Z,1005.45
2018-02-11T02:16:50.824Z,1005.49
2018-02-11T02:17:50.803Z,1005.44
2018-02-11T02:18:50.781Z,1005.48
2018-02-11T02:19:50.768Z,1005.45
2018-02-11T02:20:50.742Z,1005.41
2018-02-11T02:21:50.727Z,1005.41
2018-02-11T02:22:50.704Z,1005.37
2018-02-11T02:23:50.679Z,1005.35
2018-02-11T02:24:50.660Z,1005.33
2018-02-11T02:25:50.645Z,1005.32
2018-02-11T02:26:50.614Z,1005.27
2018-02-11T02:27:50.606Z,1005.29
2018-02-11T02:28:50.575Z,1005.27
2018-02-11T02:29:50.563Z,1005.24
2018-02-11T02:30:50.585Z,1005.22
2018-02-11T02:31:50.513Z,1005.21
2018-02-11T02:32:50.573Z,1005.22
2018-02-11T02:33:50.472Z,1005.20
2018-02-11T02:34:50.554Z,1005.15
2018-02-11T02:35:50.436Z,1005.13
2018-02-11T02:36:50.410Z,1005.13
2018-02-11T02:37:50.388Z,1005.10
2018-02-11T02:38:50.409Z,1005.05
2018-02-11T02:39:50.354Z,1005.06
2018-02-11T02:40:50.428Z,1005.08
2018-02-11T02:41:50.308Z,1005.05
2018-02-11T02:42:50.400Z,1004.99
2018-02-11T02:43:50.266Z,1004.96
2018-02-11T02:44:50.297Z,1005.01
2018-02-11T02:45:50.227Z,1004.96
2018-02-11T02:46:50.333Z,1004.93
2018-02-11T02:47:50.182Z,1004.94
2018-02-11T02:48:50.165Z,1004.91
2018-02-11T02:49:50.141Z,1004.83
2018-02-11T02:50:50.210Z,1004.82
2018-02-11T02:51:50.101Z,1004.83
2018-02-11T02:52:50.258Z,1004.79
2018-02-11T02:53:50.056Z,1004.80
2018-02-11T02:54:50.128Z,1004.73
2018-02-11T02:55:50.022Z,1004.69
2018-02-11T02:56:50.000Z,1004.73
2018-02-11T02:57:49.974Z,1004.74
2018-02-11T02:58:50.049Z,1004.70
2018-02-11T02:59:49.934Z,1004.67
2018-02-11T03:00:49.920Z,1004.65
2018-02-11T03:01:49.894Z,1004.61
2018-02-11T03:02:49.877Z,1004.64
2018-02-11T03:03:49.852Z,1004.62
2018-02-11T03:04:49.830Z,1004.60
2018-02-11T03:05:49.808Z,1004.55
2018-02-11T03:06:49.792Z,1004.53
2018-02-11T03:07:49.767Z,1004.54
2018-02-11T03:08:49.748Z,1004.58
2018-02-11T03:09:49.725Z,1004.49
2018-02-11T03:10:49.811Z,1004.51
2018-02-11T03:11:49.687Z,1004.55
2018-02-11T03:12:49.673Z,1004.52
2018-02-11T03:13:49.643Z,1004.48
2018-02-11T03:14:49.647Z,1004.45
2018-02-11T03:15:49.603Z,1004.51
2018-02-11T03:16:49.586Z,1004.50
2018-02-11T03:17:49.558Z,1004.45
2018-02-11T03:18:49.564Z,1004.43
2018-02-11T03:19:49.519Z,1004.50
2018-02-11T03:20:49.507Z,1004.56
2018-02-11T03:21:49.477Z,1004.53
2018-02-11T03:22:49.468Z,1004.46
2018-02-11T03:23:49.442Z,1004.44
2018-02-11T03:24:49.414Z,1004.42
2018-02-11T03:25:49.395Z,1004.43
2018-02-11T03:26:49.372Z,1004.44
2018-02-11T03:27:49.355Z,1004.42
2018-02-11T03:28:49.333Z,1004.44
2018-02-11T03:29:49.319Z,1004.38
2018-02-11T03:30:49.291Z,1004.37
2018-02-11T03:31:49.308Z,1004.32
2018-02-11T03:32:49.262Z,1004.32
2018-02-11T03:33:49.231Z,1004.34
2018-02-11T03:34:49.204Z,1004.34
2018-02-11T03:35:49.189Z,1004.35
2018-02-11T03:36:49.175Z,1004.35
2018-02-11T03:37:49.148Z,1004.36
2018-02-11T03:38:49.127Z,1004.33
2018-02-11T03:39:49.103Z,1004.30
2018-02-11T03:40:49.089Z,1004.25
2018-02-11T03:41:49.061Z,1004.23
2018-02-11T03:42:49.041Z,1004.29
2018-02-11T03:43:49.025Z,1004.23
2018-02-11T03:44:48.998Z,1004.23
2018-02-11T03:45:48.991Z,1004.22
2018-02-11T03:46:48.956Z,1004.17
2018-02-11T03:47:48.943Z,1004.14
2018-02-11T03:48:48.916Z,1004.11
2018-02-11T03:49:48.897Z,1004.09
2018-02-11T03:50:48.873Z,1004.10
2018-02-11T03:51:48.854Z,1003.99
2018-02-11T03:52:48.837Z,1004.00
2018-02-11T03:53:48.812Z,1004.02
2018-02-11T03:54:48.795Z,1004.00
2018-02-11T03:55:48.771Z,1003.97
2018-02-11T03:56:48.751Z,1003.91
2018-02-11T03:57:48.731Z,1003.87
2018-02-11T03:58:48.706Z,1003.92
2018-02-11T03:59:48.686Z,1003.84
2018-02-11T04:00:48.667Z,1003.86
2018-02-11T04:01:48.648Z,1003.83
2018-02-11T04:02:48.626Z,1003.82
2018-02-11T04:03:48.607Z,1003.77
2018-02-11T04:04:48.606Z,1003.79
2018-02-11T04:05:48.565Z,1003.76
2018-02-11T04:06:48.540Z,1003.76
2018-02-11T04:07:48.527Z,1003.78
2018-02-11T04:08:48.501Z,1003.73
2018-02-11T04:09:48.484Z,1003.72
2018-02-11T04:10:48.459Z,1003.71
2018-02-11T04:11:48.438Z,1003.69
2018-02-11T04:12:48.418Z,1003.64
2018-02-11T04:13:48.395Z,1003.72
2018-02-11T04:14:48.373Z,1003.70
2018-02-11T04:15:48.355Z,1003.68
2018-02-11T04:16:48.335Z,1003.63
2018-02-11T04:17:48.313Z,1003.65
2018-02-11T04:18:48.294Z,1003.68
2018-02-11T04:19:48.276Z,1003.62
2018-02-11T04:20:48.252Z,1003.59
2018-02-11T04:21:48.233Z,1003.60
2018-02-11T04:22:48.207Z,1003.55
2018-02-11T04:23:48.191Z,1003.62
2018-02-11T04:24:48.166Z,1003.52
2018-02-11T04:25:48.144Z,1003.55
2018-02-11T04:26:48.127Z,1003.55
2018-02-11T04:27:48.104Z,1003.56
2018-02-11T04:28:48.085Z,1003.51
2018-02-11T04:29:48.073Z,1003.50
2018-02-11T04:30:48.044Z,1003.49
2018-02-11T04:31:48.025Z,1003.44
2018-02-11T04:32:48.001Z,1003.46
2018-02-11T04:33:47.979Z,1003.42
2018-02-11T04:34:47.960Z,1003.42
2018-02-11T04:35:47.938Z,1003.40
2018-02-11T04:36:47.917Z,1003.41
2018-02-11T04:37:47.898Z,1003.36
2018-02-11T04:38:47.877Z,1003.37
2018-02-11T04:39:47.856Z,1003.39
2018-02-11T04:40:47.836Z,1003.34
2018-02-11T04:41:47.811Z,1003.34
2018-02-11T04:42:47.794Z,1003.32
2018-02-11T04:43:47.772Z,1003.31
2018-02-11T04:44:47.753Z,1003.27
2018-02-11T04:45:47.731Z,1003.28
2018-02-11T04:46:47.709Z,1003.23
2018-02-11T04:47:47.687Z,1003.30
2018-02-11T04:48:47.667Z,1003.22
2018-02-11T04:49:47.648Z,1003.23
2018-02-11T04:50:47.628Z,1003.17
2018-02-11T04:51:47.603Z,1003.19
2018-02-11T04:52:47.615Z,1003.16
2018-02-11T04:53:47.565Z,1003.16
2018-02-11T04:54:47.543Z,1003.18
2018-02-11T04:55:47.525Z,1003.16
2018-02-11T04:56:47.500Z,1003.11
2018-02-11T04:57:47.489Z,1003.07
2018-02-11T04:58:47.462Z,1003.08
2018-02-11T04:59:47.437Z,1003.08
2018-02-11T05:00:47.415Z,1003.13
2018-02-11T05:01:47.396Z,1003.11
2018-02-11T05:02:47.375Z,1003.15
2018-02-11T05:03:47.355Z,1003.12
2018-02-11T05:04:47.335Z,1003.12
2018-02-11T05:05:47.310Z,1003.11
2018-02-11T05:06:47.297Z,1003.12
2018-02-11T05:07:47.271Z,1003.04
2018-02-11T05:08:47.256Z,1003.07
2018-02-11T05:09:47.233Z,1003.04
2018-02-11T05:10:47.208Z,1003.06
2018-02-11T05:11:47.185Z,1003.09
2018-02-11T05:12:47.167Z,1003.04
2018-02-11T05:13:47.144Z,1003.07
2018-02-11T05:14:47.141Z,1003.04
2018-02-11T05:15:47.105Z,1003.07
2018-02-11T05:16:47.084Z,1003.08
2018-02-11T05:17:47.058Z,1003.03
2018-02-11T05:18:47.099Z,1003.03
2018-02-11T05:19:47.025Z,1003.00
2018-02-11T05:20:47.005Z,1002.98
2018-02-11T05:21:46.979Z,1002.99
2018-02-11T05:22:46.956Z,1002.96
2018-02-11T05:23:46.945Z,1002.93
2018-02-11T05:24:46.917Z,1002.97
2018-02-11T05:25:46.894Z,1002.90
2018-02-11T05:26:46.875Z,1002.92
2018-02-11T05:27:46.852Z,1002.85
2018-02-11T05:28:46.835Z,1002.88
2018-02-11T05:29:46.811Z,1002.84
2018-02-11T05:30:46.789Z,1002.85
2018-02-11T05:31:46.767Z,1002.87
2018-02-11T05:32:46.748Z,1002.78
2018-02-11T05:33:46.725Z,1002.71
2018-02-11T05:34:46.709Z,1002.71
2018-02-11T05:35:46.685Z,1002.72
2018-02-11T05:36:46.666Z,1002.72
2018-02-11T05:37:46.648Z,1002.71
2018-02-11T05:38:46.624Z,1002.70
2018-02-11T05:39:46.606Z,1002.67
2018-02-11T05:40:46.582Z,1002.63
2018-02-11T05:41:46.568Z,1002.67
2018-02-11T05:42:46.543Z,1002.64
2018-02-11T05:43:46.520Z,1002.62
2018-02-11T05:44:46.495Z,1002.64
2018-02-11T05:45:46.576Z,1002.62
2018-02-11T05:46:46.454Z,1002.65
2018-02-11T05:47:46.509Z,1002.60
2018-02-11T05:48:46.415Z,1002.55
2018-02-11T05:49:46.395Z,1002.48
2018-02-11T05:50:46.371Z,1002.55
2018-02-11T05:51:46.458Z,1002.51
2018-02-11T05:52:46.334Z,1002.47
2018-02-11T05:53:46.312Z,1002.44
2018-02-11T05:54:46.305Z,1002.47
2018-02-11T05:55:46.273Z,1002.40
2018-02-11T05:56:46.246Z,1002.42
2018-02-11T05:57:46.226Z,1002.38
2018-02-11T05:58:46.208Z,1002.37
2018-02-11T05:59:46.188Z,1002.32
2018-02-11T06:00:46.164Z,1002.26
2018-02-11T06:01:46.146Z,1002.26
2018-02-11T06:02:46.122Z,1002.26
2018-02-11T06:03:46.140Z,1002.28
2018-02-11T06:04:46.083Z,1002.24
2018-02-11T06:05:46.064Z,1002.24
2018-02-11T06:06:46.044Z,1002.25
2018-02-11T06:07:46.023Z,1002.24
2018-02-11T06:08:45.998Z,1002.22
2018-02-11T06:09:45.989Z,1002.21
2018-02-11T06:10:45.956Z,1002.16
2018-02-11T06:11:45.937Z,1002.21
2018-02-11T06:12:45.928Z,1002.14
2018-02-11T06:13:46.025Z,1002.11
2018-02-11T06:14:45.878Z,1002.15
2018-02-11T06:15:45.864Z,1002.10
2018-02-11T06:16:45.845Z,1002.15
2018-02-11T06:17:45.818Z,1002.13
2018-02-11T06:18:45.790Z,1002.15
2018-02-11T06:19:45.771Z,1002.15
2018-02-11T06:20:45.745Z,1002.11
2018-02-11T06:21:45.726Z,1002.09
2018-02-11T06:22:45.707Z,1002.11
2018-02-11T06:23:45.686Z,1002.08
2018-02-11T06:24:45.662Z,1002.05
2018-02-11T06:25:45.644Z,1002.08
2018-02-11T06:26:45.683Z,1002.03
2018-02-11T06:27:45.598Z,1002.03
2018-02-11T06:28:45.653Z,1002.02
2018-02-11T06:29:45.559Z,1001.97
2018-02-11T06:30:45.547Z,1001.94
2018-02-11T06:31:45.521Z,1001.96
2018-02-11T06:32:45.495Z,1001.98
2018-02-11T06:33:45.479Z,1001.94
2018-02-11T06:34:45.462Z,1001.93
2018-02-11T06:35:45.432Z,1001.91
2018-02-11T06:36:45.417Z,1001.89
2018-02-11T06:37:45.393Z,1001.92
2018-02-11T06:38:45.376Z,1001.88
2018-02-11T06:39:45.350Z,1001.82
2018-02-11T06:40:45.329Z,1001.83
2018-02-11T06:41:45.313Z,1001.75
2018-02-11T06:42:45.289Z,1001.82
2018-02-11T06:43:45.270Z,1001.78
2018-02-11T06:44:45.247Z,1001.81
2018-02-11T06:45:45.225Z,1001.82
2018-02-11T06:46:45.202Z,1001.82
2018-02-11T06:47:45.185Z,1001.77
2018-02-11T06:48:45.166Z,1001.79
2018-02-11T06:49:45.139Z,1001.82
2018-02-11T06:50:45.123Z,1001.84
2018-02-11T06:51:45.100Z,1001.81
2018-02-11T06:52:45.084Z,1001.81
2018-02-11T06:53:45.056Z,1001.79
2018-02-11T06:54:45.047Z,1001.76
2018-02-11T06:55:45.020Z,1001.78
2018-02-11T06:56:44.996Z,1001.76
2018-02-11T06:57:44.973Z,1001.73
2018-02-11T06:58:44.959Z,1001.69
2018-02-11T06:59:44.936Z,1001.75
2018-02-11T07:00:44.917Z,1001.76
2018-02-11T07:01:44.893Z,1001.71
2018-02-11T07:02:44.875Z,1001.65
2018-02-11T07:03:44.856Z,1001.68
2018-02-11T07:04:44.840Z,1001.68
2018-02-11T07:05:44.816Z,1001.64
2018-02-11T07:06:44.801Z,1001.63
2018-02-11T07:07:44.766Z,1001.60
2018-02-11T07:08:44.747Z,1001.60
2018-02-11T07:09:44.732Z,1001.65
2018-02-11T07:10:44.705Z,1001.62
2018-02-11T07:11:44.686Z,1001.60
2018-02-11T07:12:44.673Z,1001.66
2018-02-11T07:13:44.646Z,1001.63
2018-02-11T07:14:44.621Z,1001.64
2018-02-11T07:15:44.604Z,1001.70
2018-02-11T07:16:44.583Z,1001.65
2018-02-11T07:17:44.579Z,1001.65
2018-02-11T07:18:44.539Z,1001.65
2018-02-11T07:19:44.515Z,1001.66
2018-02-11T07:20:44.496Z,1001.65
2018-02-11T07:21:44.474Z,1001.69
2018-02-11T07:22:44.456Z,1001.64
2018-02-11T07:23:44.435Z,1001.67
2018-02-11T07:24:44.422Z,1001.64
2018-02-11T07:25:44.393Z,1001.63
2018-02-11T07:26:44.372Z,1001.61
2018-02-11T07:27:44.359Z,1001.63
2018-02-11T07:28:44.333Z,1001.63
2018-02-11T07:29:44.319Z,1001.68
2018-02-11T07:30:44.289Z,1001.56
2018-02-11T07:31:44.271Z,1001.57
2018-02-11T07:32:44.247Z,1001.57
2018-02-11T07:33:44.229Z,1001.51
2018-02-11T07:34:44.205Z,1001.53
2018-02-11T07:35:44.186Z,1001.53
2018-02-11T07:36:44.164Z,1001.54
2018-02-11T07:37:44.144Z,1001.51
2018-02-11T07:38:44.126Z,1001.49
2018-02-11T07:39:44.100Z,1001.48
2018-02-11T07:40:44.081Z,1001.49
2018-02-11T07:41:44.064Z,1001.47
2018-02-11T07:42:44.039Z,1001.45
2018-02-11T07:43:44.025Z,1001.53
2018-02-11T07:44:44.004Z,1001.48
2018-02-11T07:45:43.984Z,1001.60
2018-02-11T07:46:43.967Z,1001.54
2018-02-11T07:47:43.936Z,1001.55
2018-02-11T07:48:43.927Z,1001.52
2018-02-11T07:49:43.895Z,1001.50
2018-02-11T07:50:43.940Z,1001.49
2018-02-11T07:51:43.856Z,1001.47
2018-02-11T07:52:43.837Z,1001.56
2018-02-11T07:53:43.816Z,1001.50
2018-02-11T07:54:43.793Z,1001.52
2018-02-11T07:55:43.775Z,1001.46
2018-02-11T07:56:43.755Z,1001.45
2018-02-11T07:57:43.753Z,1001.48
2018-02-11T07:58:43.716Z,1001.45
2018-02-11T07:59:43.690Z,1001.47
2018-02-11T08:00:43.673Z,1001.39
2018-02-11T08:01:43.653Z,1001.41
2018-02-11T08:02:43.634Z,1001.32
2018-02-11T08:03:43.619Z,1001.28
2018-02-11T08:04:43.593Z,1001.30
2018-02-11T08:05:43.572Z,1001.20
2018-02-11T08:06:43.555Z,1001.21
2018-02-11T08:07:43.530Z,1001.24
2018-02-11T08:08:43.518Z,1001.11
2018-02-11T08:09:43.492Z,1001.10
2018-02-11T08:10:43.475Z,1001.09
2018-02-11T08:11:43.454Z,1001.02
2018-02-11T08:12:43.430Z,1001.03
2018-02-11T08:13:43.415Z,1001.07
2018-02-11T08:14:43.390Z,1001.01
2018-02-11T08:15:43.374Z,1000.95
2018-02-11T08:16:43.356Z,1000.92
2018-02-11T08:17:43.333Z,1000.94
2018-02-11T08:18:43.309Z,1000.85
2018-02-11T08:19:43.346Z,1000.76
2018-02-11T08:20:43.271Z,1000.78
2018-02-11T08:21:43.252Z,1000.86
2018-02-11T08:22:43.231Z,1000.94
2018-02-11T08:23:43.212Z,1000.91
2018-02-11T08:24:43.202Z,1000.93
2018-02-11T08:25:43.176Z,1000.84
2018-02-11T08:26:43.156Z,1000.81
2018-02-11T08:27:43.140Z,1000.79
2018-02-11T08:28:43.112Z,1000.75
2018-02-11T08:29:43.110Z,1000.79
2018-02-11T08:30:43.073Z,1000.78
2018-02-11T08:31:43.051Z,1000.71
2018-02-11T08:32:43.033Z,1000.75
2018-02-11T08:33:43.017Z,1000.82
2018-02-11T08:34:42.991Z,1000.79
2018-02-11T08:35:42.972Z,1000.75
2018-02-11T08:36:42.950Z,1000.90
2018-02-11T08:37:42.930Z,1000.86
2018-02-11T08:38:42.912Z,1000.89
2018-02-11T08:39:42.901Z,1000.97
2018-02-11T08:40:42.880Z,1000.94
2018-02-11T08:41:42.858Z,1000.84
2018-02-11T08:42:42.841Z,1000.94
2018-02-11T08:43:42.816Z,1000.88
2018-02-11T08:44:42.794Z,1000.86
2018-02-11T08:45:42.775Z,1000.95
2018-02-11T08:46:42.761Z,1000.88
2018-02-11T08:47:42.734Z,1000.92
2018-02-11T08:48:42.722Z,1000.84
2018-02-11T08:49:42.697Z,1000.83
2018-02-11T08:50:42.688Z,1000.80
2018-02-11T08:51:42.666Z,1000.84
2018-02-11T08:52:42.642Z,1000.82
2018-02-11T08:53:42.616Z,1000.78
2018-02-11T08:54:42.599Z,1000.68
2018-02-11T08:55:42.580Z,1000.64
2018-02-11T08:56:42.612Z,1000.68
2018-02-11T08:57:42.549Z,1000.69
2018-02-11T08:58:42.527Z,1000.61
2018-02-11T08:59:42.505Z,1000.63
2018-02-11T09:00:42.505Z,1000.58
2018-02-11T09:01:42.469Z,1000.50
2018-02-11T09:02:42.552Z,1000.46
2018-02-11T09:03:42.433Z,1000.45
2018-02-11T09:04:42.451Z,1000.43
2018-02-11T09:05:42.401Z,1000.36
2018-02-11T09:06:42.478Z,1000.34
2018-02-11T09:07:42.352Z,1000.30
2018-02-11T09:08:42.346Z,1000.26
2018-02-11T09:09:42.327Z,1000.22
2018-02-11T09:10:42.417Z,1000.24
2018-02-11T09:11:42.282Z,1000.20
2018-02-11T09:12:42.264Z,1000.14
2018-02-11T09:13:42.243Z,1000.10
2018-02-11T09:14:42.225Z,1000.01
2018-02-11T09:15:42.207Z,1000.19
2018-02-11T09:16:42.235Z,999.99
2018-02-11T09:17:42.164Z,1000.04
2018-02-11T09:18:42.156Z,1000.06
2018-02-11T09:19:42.133Z,1000.03
2018-02-11T09:20:42.219Z,1000.02
2018-02-11T09:21:42.091Z,1000.11
2018-02-11T09:22:42.074Z,1000.05
2018-02-11T09:23:42.064Z,1000.02
2018-02-11T09:24:42.135Z,1000.02
2018-02-11T09:25:42.016Z,1000.03
2018-02-11T09:26:42.101Z,1000.08
2018-02-11T09:27:41.979Z,999.99
2018-02-11T09:28:41.965Z,999.94
2018-02-11T09:29:41.940Z,999.92
2018-02-11T09:30:41.924Z,999.88
2018-02-11T09:31:41.904Z,999.86
2018-02-11T09:32:42.079Z,999.86
2018-02-11T09:33:41.866Z,999.74
2018-02-11T09:34:41.845Z,999.82
2018-02-11T09:35:41.828Z,999.88
2018-02-11T09:36:41.813Z,999.87
2018-02-11T09:37:41.789Z,999.80
2018-02-11T09:38:41.871Z,999.74
2018-02-11T09:39:41.805Z,999.87
2018-02-11T09:40:41.839Z,999.74
2018-02-11T09:41:41.725Z,999.75
2018-02-11T09:42:41.846Z,999.81
2018-02-11T09:43:41.676Z,999.72
2018-02-11T09:44:41.756Z,999.71
2018-02-11T09:45:41.639Z,999.69
2018-02-11T09:46:41.630Z,999.61
2018-02-11T09:47:41.600Z,999.64
2018-02-11T09:48:41.586Z,999.58
2018-02-11T09:49:41.566Z,999.70
2018-02-11T09:50:41.544Z,999.54
2018-02-11T09:51:41.526Z,999.59
2018-02-11T09:52:41.510Z,999.52
2018-02-11T09:53:41.487Z,999.46
2018-02-11T09:54:41.486Z,999.52
2018-02-11T09:55:41.451Z,999.51
2018-02-11T09:56:41.437Z,999.49
2018-02-11T09:57:41.417Z,999.56
2018-02-11T09:58:41.396Z,999.53
2018-02-11T09:59:41.382Z,999.58
2018-02-11T10:00:41.368Z,999.54
2018-02-11T10:01:41.347Z,999.47
2018-02-11T10:02:41.330Z,999.47
2018-02-11T10:03:41.305Z,999.34
2018-02-11T10:04:41.331Z,999.28
2018-02-11T10:05:41.274Z,999.29
2018-02-11T10:06:41.254Z,999.13
2018-02-11T10:07:41.254Z,999.15
2018-02-11T10:08:41.215Z,999.13
2018-02-11T10:09:41.196Z,999.03
2018-02-11T10:10:41.180Z,999.05
2018-02-11T10:11:41.163Z,998.98
2018-02-11T10:12:41.142Z,998.96
2018-02-11T10:13:41.127Z,998.94
2018-02-11T10:14:41.109Z,998.95
2018-02-11T10:15:41.087Z,998.95
2018-02-11T10:16:41.074Z,998.87
2018-02-11T10:17:41.053Z,998.86
2018-02-11T10:18:41.037Z,998.89
2018-02-11T10:19:41.016Z,998.88
2018-02-11T10:20:40.996Z,998.90
2018-02-11T10:21:40.984Z,998.94
2018-02-11T10:22:40.967Z,999.02
2018-02-11T10:23:40.953Z,999.03
2018-02-11T10:24:40.927Z,998.93
2018-02-11T10:25:40.903Z,998.95
2018-02-11T10:26:40.887Z,998.98
2018-02-11T10:27:40.869Z,999.04
2018-02-11T10:28:40.871Z,999.11
2018-02-11T10:29:40.877Z,999.15
2018-02-11T10:30:40.808Z,999.20
2018-02-11T10:31:40.795Z,999.10
2018-02-11T10:32:40.774Z,999.17
2018-02-11T10:33:40.758Z,999.39
2018-02-11T10:34:40.738Z,999.58
2018-02-11T10:35:40.723Z,999.77
2018-02-11T10:36:40.706Z,999.82
2018-02-11T10:37:40.696Z,1000.16
2018-02-11T10:38:40.675Z,999.91
2018-02-11T10:39:40.662Z,999.91
2018-02-11T10:40:40.638Z,1000.54
2018-02-11T10:41:40.617Z,999.73
2018-02-11T10:42:40.599Z,999.38
2018-02-11T10:43:40.583Z,999.21
2018-02-11T10:44:40.565Z,999.06
2018-02-11T10:45:40.549Z,999.50
2018-02-11T10:46:40.535Z,999.34
2018-02-11T10:47:40.518Z,999.33
2018-02-11T10:48:40.607Z,999.62
2018-02-11T10:49:40.487Z,1000.62
2018-02-11T10:50:40.585Z,1000.35
2018-02-11T10:51:40.463Z,1000.05
2018-02-11T10:52:40.588Z,1000.08
2018-02-11T10:53:40.422Z,999.97
2018-02-11T10:54:40.412Z,999.79
2018-02-11T10:55:40.388Z,999.79
2018-02-11T10:56:40.374Z,999.94
2018-02-11T10:57:40.354Z,999.87
2018-02-11T10:58:40.345Z,1000.19
2018-02-11T10:59:40.328Z,999.83
2018-02-11T11:00:40.307Z,1000.03
2018-02-11T11:01:40.291Z,1000.03
2018-02-11T11:02:40.377Z,1000.31
2018-02-11T11:03:40.265Z,1000.37
2018-02-11T11:04:40.421Z,1001.01
2018-02-11T11:05:40.241Z,999.89
2018-02-11T11:06:40.227Z,1000.07
2018-02-11T11:07:40.204Z,999.68
2018-02-11T11:08:40.303Z,999.41
2018-02-11T11:09:40.179Z,999.16
2018-02-11T11:10:40.289Z,999.03
2018-02-11T11:11:40.162Z,998.89
2018-02-11T11:12:40.137Z,999.03
2018-02-11T11:13:40.132Z,998.90
2018-02-11T11:14:40.209Z,998.83
2018-02-11T11:15:40.103Z,998.86
2018-02-11T11:16:40.081Z,998.89
2018-02-11T11:17:40.068Z,998.79
2018-02-11T11:18:40.152Z,998.78
2018-02-11T11:19:40.037Z,998.68
2018-02-11T11:20:40.020Z,998.46
2018-02-11T11:21:40.035Z,998.76
2018-02-11T11:22:40.044Z,998.45
2018-02-11T11:23:39.978Z,998.40
2018-02-11T11:24:40.013Z,998.21
2018-02-11T11:25:39.970Z,998.24
2018-02-11T11:26:39.985Z,998.28
2018-02-11T11:27:39.918Z,998.14
2018-02-11T11:28:39.950Z,998.45
2018-02-11T11:29:39.895Z,998.15
2018-02-11T11:30:39.918Z,998.04
2018-02-11T11:31:39.864Z,998.07
2018-02-11T11:32:39.834Z,997.95
2018-02-11T11:33:39.828Z,998.06
2018-02-11T11:34:39.806Z,998.01
2018-02-11T11:35:39.800Z,998.08
2018-02-11T11:36:39.777Z,998.17
2018-02-11T11:37:39.755Z,998.00
2018-02-11T11:38:39.745Z,998.11
2018-02-11T11:39:39.726Z,998.12
2018-02-11T11:40:39.707Z,997.86
2018-02-11T11:41:39.691Z,997.92
2018-02-11T11:42:39.675Z,997.89
2018-02-11T11:43:39.658Z,997.84
2018-02-11T11:44:39.640Z,997.89
2018-02-11T11:45:39.622Z,997.99
2018-02-11T11:46:39.606Z,997.84
2018-02-11T11:47:39.594Z,997.87
2018-02-11T11:48:39.584Z,997.89
2018-02-11T11:49:39.552Z,998.12
2018-02-11T11:50:39.539Z,997.97
2018-02-11T11:51:39.524Z,998.34
2018-02-11T11:52:39.509Z,998.07
2018-02-11T11:53:39.482Z,997.98
2018-02-11T11:54:39.467Z,998.00
2018-02-11T11:55:39.452Z,997.97
2018-02-11T11:56:39.434Z,998.06
2018-02-11T11:57:39.415Z,998.03
2018-02-11T11:58:39.393Z,998.01
2018-02-11T11:59:39.378Z,997.94
2018-02-11T12:00:39.362Z,997.95
2018-02-11T12:01:39.343Z,997.84
2018-02-11T12:02:39.326Z,997.84
2018-02-11T12:03:39.302Z,997.79
2018-02-11T12:04:39.285Z,997.80
2018-02-11T12:05:39.269Z,997.94
2018-02-11T12:06:39.255Z,998.01
2018-02-11T12:07:39.230Z,997.74
2018-02-11T12:08:39.216Z,997.74
2018-02-11T12:09:39.205Z,997.68
2018-02-11T12:10:39.177Z,997.79